Terminal Aerodrome Forecast
Issued by NWS

Home | Current Version | Previous Version | Text Only | Print | Product List | Glossary On
Versions: 1 2 3 4 5 6 7 8 9 10 11 12 13 14 15 16 17 18 19 20 21 22
000
FTUS45 KABQ 242300 RRA
TAFTCC
TAF
KTCC 242342Z 2500/2524 27026G38KT P6SM SCT100
     FM250300 25011G21KT P6SM FEW110
     FM251700 26014G24KT P6SM FEW110=

USA.gov is the U.S. government's official web portal to all federal, state and local government web resources and services.